Hlavní strana
METAR-TAF:

METAR-TAF

Letiště :

Pori, Finsko

zeměpisná šířka: 61-28N, zeměpisná délka: 021-48E, výška: 13 m

Aktuální stav počasí

Zpráva byla vytvořena před 18 minutami, v 08:20 UTC
Východní vítr 6 kt, proměnlivý mezi severovýchodním a východojihovýchodním
Teplota 17°C
Vlhkost vzduchu 36%
Tlak 1018 hPa
Viditelnost 10 km a více

METAR: EFPO 260820Z AUTO 08006KT 050V120 9999 SCT093/// 17/02 Q1018

Čas: 11:38 (08:38 UTC)

Předpověď počasí

Zpráva byla vytvořena před 3 hodinami a 11 minutami, v 05:27 UTC
Předpověď platná od 26 v 06 UTC do 26 v 15 UTC
Východní vítr 8 kt
Viditelnost 10 km a více
Žádná oblačnost pod 1500 m, nevyskytují se cumulonimby.

TAF: EFPO 260527Z 2606/2615 08008KT CAVOK

Stav a předpovědi počasí z více než 4 000 letišť (zprávy METAR a TAF).

Červené a žluté tečky na mapě představují dostupné meteorologické stanice.

Když kurzor umístíte na tečku, zobrazí se název stanice.

Pak kliknutím zobrazíte stav a předpověď počasí.

Chcete-li změnit mapu, kliknutím na zelené tlačítko se znaménkem +mapu přiblížíte, kliknutím na zelené tlačítko se znaménkem – mapu oddálíte a kliknutím na zelené šipky přejdete na sousední mapy.


METAR-TAF: